Time;durP1;ratioP1;P1;durP2;ratioP2;P2;SDS_P1;SDS_P2;PMS_P1;PMS_P2;Temp;Humidity;BMP_temperature;BMP_pressure;BME280_temperature;BME280_humidity;BME280_pressure;Samples;Min_cycle;Max_cycle;Signal;HPM_P1;HPM_P2
2022/03/14 00:01:00;;;;;;;;;;;;;;;4.68;100.00;100745.31;5017317;28;20007;-64
2022/03/14 00:03:52;;;;;;;;;;;;;;;4.80;100.00;100749.03;5019443;28;19928;-66
2022/03/14 00:06:36;;;;;;;;;;;;;;;4.75;100.00;100742.81;4987219;28;20403;-64
2022/03/14 00:09:21;;;;;;;;;;;;;;;4.68;100.00;100740.94;5006586;28;20011;-66
2022/03/14 00:12:19;;;;;;;;;;;;;;;4.70;100.00;100744.47;5029821;28;20159;-64
2022/03/14 00:15:08;;;;;;;;;;;;;;;4.59;100.00;100747.78;5014650;28;20020;-69
2022/03/14 00:17:54;;;;;;;;;;;;;;;4.64;100.00;100735.59;5009774;28;19940;-64
2022/03/14 00:20:41;;;;;;;;;;;;;;;4.76;100.00;100743.72;5011424;28;19928;-63
2022/03/14 00:23:27;;;;;;;;;;;;;;;4.86;100.00;100748.25;5014097;28;19928;-64
2022/03/14 00:26:12;;;;;;;;;;;;;;;4.83;100.00;100746.47;5032468;28;20028;-65
2022/03/14 00:28:57;;;;;;;;;;;;;;;4.91;100.00;100744.00;5029559;28;19951;-68
2022/03/14 00:31:43;;;;;;;;;;;;;;;4.90;100.00;100748.38;5031383;28;20112;-64
2022/03/14 00:34:28;;;;;;;;;;;;;;;4.63;100.00;100713.69;5011870;28;19928;-65
2022/03/14 00:37:13;;;;;;;;;;;;;;;4.77;100.00;100745.47;4989832;28;20022;-64
2022/03/14 00:39:58;;;;;;;;;;;;;;;4.66;100.00;100749.63;5036361;28;19928;-64
2022/03/14 00:42:43;;;;;;;;;;;;;;;4.57;100.00;100746.84;5033529;28;19973;-64
2022/03/14 00:45:28;;;;;;;;;;;;;;;4.61;100.00;100746.03;5017475;28;19971;-64
2022/03/14 00:48:13;;;;;;;;;;;;;;;4.63;100.00;100747.84;5016825;28;19967;-68
2022/03/14 00:50:57;;;;;;;;;;;;;;;4.67;100.00;100743.56;5034954;28;19986;-65
2022/03/14 00:53:42;;;;;;;;;;;;;;;4.60;100.00;100746.91;5031381;28;20017;-64
2022/03/14 00:56:27;;;;;;;;;;;;;;;4.62;100.00;100742.56;5019491;28;20349;-65
2022/03/14 00:59:11;;;;;;;;;;;;;;;4.69;100.00;100747.06;5032036;28;20312;-64
2022/03/14 01:01:56;;;;;;;;;;;;;;;4.72;100.00;100749.78;5017439;28;19943;-65
2022/03/14 01:04:44;;;;;;;;;;;;;;;4.74;100.00;100751.56;5017203;28;20308;-65
2022/03/14 01:07:29;;;;;;;;;;;;;;;4.81;100.00;100742.06;5030808;28;20435;-68
2022/03/14 01:10:13;;;;;;;;;;;;;;;4.84;100.00;100750.84;5034180;28;19982;-65
2022/03/14 01:12:58;;;;;;;;;;;;;;;4.86;100.00;100743.91;5015276;28;19928;-66
2022/03/14 01:15:42;;;;;;;;;;;;;;;4.84;100.00;100735.09;5034046;28;19968;-65
2022/03/14 01:18:27;;;;;;;;;;;;;;;4.89;100.00;100735.19;5016677;28;19947;-64
2022/03/14 01:21:11;;;;;;;;;;;;;;;4.79;100.00;100741.16;5017032;28;19928;-65
2022/03/14 01:23:59;;;;;;;;;;;;;;;4.81;100.00;100742.94;5018841;28;19928;-64
2022/03/14 01:26:44;;;;;;;;;;;;;;;4.74;100.00;100741.06;5016079;28;20396;-69
2022/03/14 01:29:29;;;;;;;;;;;;;;;4.82;100.00;100734.19;4989505;28;19928;-64
2022/03/14 01:32:13;;;;;;;;;;;;;;;4.95;100.00;100741.44;5015274;28;19927;-66
2022/03/14 01:34:59;;;;;;;;;;;;;;;5.10;100.00;100745.22;5005864;28;19974;-64
2022/03/14 01:37:47;;;;;;;;;;;;;;;5.11;100.00;100737.34;5032232;28;19931;-65
2022/03/14 01:40:35;;;;;;;;;;;;;;;5.12;100.00;100743.47;5016059;28;19932;-68
2022/03/14 01:43:21;;;;;;;;;;;;;;;5.11;100.00;100744.34;5033285;28;19928;-66
2022/03/14 01:46:07;;;;;;;;;;;;;;;5.02;100.00;100747.69;4987659;28;19971;-65
2022/03/14 01:48:51;;;;;;;;;;;;;;;4.98;100.00;100748.50;5033953;28;20455;-66
2022/03/14 01:51:36;;;;;;;;;;;;;;;5.14;100.00;100744.41;5017103;28;20137;-65
2022/03/14 01:54:20;;;;;;;;;;;;;;;5.23;100.00;100745.44;5031447;28;19983;-65
2022/03/14 01:57:05;;;;;;;;;;;;;;;5.20;100.00;100752.38;5016961;28;19948;-64
2022/03/14 01:59:51;;;;;;;;;;;;;;;5.22;100.00;100737.53;5030913;28;19982;-68
2022/03/14 02:02:38;;;;;;;;;;;;;;;5.06;100.00;100746.00;5033116;28;20392;-65
2022/03/14 02:05:23;;;;;;;;;;;;;;;4.94;100.00;100744.94;5013821;28;19927;-64
2022/03/14 02:08:07;;;;;;;;;;;;;;;4.89;100.00;100749.22;5016187;28;19931;-65
2022/03/14 02:10:52;;;;;;;;;;;;;;;4.88;100.00;100744.81;5031076;28;19928;-65
2022/03/14 02:13:39;;;;;;;;;;;;;;;4.90;100.00;100744.84;5016954;28;19928;-65
2022/03/14 02:16:23;;;;;;;;;;;;;;;4.93;100.00;100752.78;5033174;28;20305;-63
2022/03/14 02:19:07;;;;;;;;;;;;;;;4.87;100.00;100756.19;5013969;28;19979;-70
2022/03/14 02:21:55;;;;;;;;;;;;;;;4.90;100.00;100760.59;5015380;28;20023;-65
2022/03/14 02:24:44;;;;;;;;;;;;;;;4.93;100.00;100771.19;5029239;28;20550;-64
2022/03/14 02:27:29;;;;;;;;;;;;;;;4.86;100.00;100767.56;5031915;28;19967;-66
2022/03/14 02:30:14;;;;;;;;;;;;;;;4.88;100.00;100771.09;5033245;28;19928;-66
2022/03/14 02:33:01;;;;;;;;;;;;;;;4.97;100.00;100766.03;5014773;28;19959;-71
2022/03/14 02:35:46;;;;;;;;;;;;;;;5.11;100.00;100770.63;5015808;28;19967;-65
2022/03/14 02:38:31;;;;;;;;;;;;;;;5.07;100.00;100761.81;4986110;28;19963;-65
2022/03/14 02:41:15;;;;;;;;;;;;;;;5.13;100.00;100771.56;5030492;28;19971;-66
2022/03/14 02:44:01;;;;;;;;;;;;;;;4.97;100.00;100779.16;5032532;28;19931;-65
2022/03/14 02:46:45;;;;;;;;;;;;;;;4.94;100.00;100763.31;5016601;28;19927;-64
2022/03/14 02:49:30;;;;;;;;;;;;;;;5.03;100.00;100776.63;5032940;28;19975;-65
2022/03/14 02:52:14;;;;;;;;;;;;;;;4.96;100.00;100776.50;5029284;28;19982;-68
2022/03/14 02:54:59;;;;;;;;;;;;;;;4.92;100.00;100769.41;5033091;28;19971;-66
2022/03/14 02:57:44;;;;;;;;;;;;;;;4.95;100.00;100772.97;5028716;28;20467;-65
2022/03/14 03:00:29;;;;;;;;;;;;;;;4.98;100.00;100772.13;5032267;28;19944;-65
2022/03/14 03:03:14;;;;;;;;;;;;;;;4.93;100.00;100771.19;5017520;28;19951;-66
2022/03/14 03:06:00;;;;;;;;;;;;;;;4.82;100.00;100781.50;5001384;28;19927;-64
2022/03/14 03:08:45;;;;;;;;;;;;;;;4.86;100.00;100783.31;5017434;28;20066;-64
2022/03/14 03:11:32;;;;;;;;;;;;;;;5.00;100.00;100789.69;5014422;28;19927;-73
2022/03/14 03:14:16;;;;;;;;;;;;;;;5.11;100.00;100783.78;5015104;28;20328;-64
2022/03/14 03:17:01;;;;;;;;;;;;;;;4.90;100.00;100779.91;5028129;28;19947;-64
2022/03/14 03:19:45;;;;;;;;;;;;;;;4.87;100.00;100779.84;5029972;28;20361;-65
2022/03/14 03:22:30;;;;;;;;;;;;;;;4.94;100.00;100780.81;5014719;28;20190;-64
2022/03/14 03:25:14;;;;;;;;;;;;;;;4.87;100.00;100786.84;5030338;28;19996;-64
2022/03/14 03:27:59;;;;;;;;;;;;;;;4.86;100.00;100782.41;5017030;28;19944;-65
2022/03/14 03:30:43;;;;;;;;;;;;;;;4.91;100.00;100776.41;5029682;28;19974;-72
2022/03/14 03:33:28;;;;;;;;;;;;;;;4.87;100.00;100774.56;5031140;28;19932;-65
2022/03/14 03:36:13;;;;;;;;;;;;;;;4.86;100.00;100782.41;5013484;28;19927;-64
2022/03/14 03:38:58;;;;;;;;;;;;;;;4.76;100.00;100781.38;5014232;28;20431;-65
2022/03/14 03:41:44;;;;;;;;;;;;;;;4.73;100.00;100783.06;5013591;28;19933;-64
2022/03/14 03:44:29;;;;;;;;;;;;;;;4.81;100.00;100784.09;5030223;28;20491;-66
2022/03/14 03:47:14;;;;;;;;;;;;;;;5.04;100.00;100788.91;4986854;28;20059;-64
2022/03/14 03:49:58;;;;;;;;;;;;;;;4.85;100.00;100767.53;5012941;28;19927;-71
2022/03/14 03:52:43;;;;;;;;;;;;;;;4.92;100.00;100785.19;5014086;28;20028;-66
2022/03/14 03:55:28;;;;;;;;;;;;;;;4.92;100.00;100788.69;5027198;28;20403;-66
2022/03/14 03:58:13;;;;;;;;;;;;;;;4.90;100.00;100794.75;5030370;28;19943;-64
2022/03/14 04:00:57;;;;;;;;;;;;;;;4.82;100.00;100788.47;5013350;28;20352;-64
2022/03/14 04:03:42;;;;;;;;;;;;;;;4.80;100.00;100796.31;5014016;28;20396;-65
2022/03/14 04:06:30;;;;;;;;;;;;;;;4.77;100.00;100798.03;5031050;28;20289;-64
2022/03/14 04:09:14;;;;;;;;;;;;;;;4.93;100.00;100800.97;5012570;28;19927;-73
2022/03/14 04:11:59;;;;;;;;;;;;;;;4.98;100.00;100806.31;5027971;28;19928;-63
2022/03/14 04:14:43;;;;;;;;;;;;;;;5.01;100.00;100798.47;5026764;28;20077;-66
2022/03/14 04:17:29;;;;;;;;;;;;;;;5.20;100.00;100800.59;5028399;28;19927;-66
2022/03/14 04:20:13;;;;;;;;;;;;;;;5.14;100.00;100803.09;5028249;28;19975;-65
2022/03/14 04:22:58;;;;;;;;;;;;;;;5.19;100.00;100800.56;5014745;28;20059;-65
2022/03/14 04:25:44;;;;;;;;;;;;;;;5.21;100.00;100804.13;5030618;28;19927;-64
2022/03/14 04:28:30;;;;;;;;;;;;;;;5.31;100.00;100806.94;5012971;28;19944;-69
2022/03/14 04:31:15;;;;;;;;;;;;;;;5.37;100.00;100812.28;5028337;28;19931;-65
2022/03/14 04:33:59;;;;;;;;;;;;;;;5.48;100.00;100815.09;5025545;28;20408;-64
2022/03/14 04:36:44;;;;;;;;;;;;;;;5.45;100.00;100809.81;5013499;28;19983;-64
2022/03/14 04:39:28;;;;;;;;;;;;;;;5.44;100.00;100816.81;5012859;28;19928;-64
2022/03/14 04:42:15;;;;;;;;;;;;;;;5.47;100.00;100815.97;5028304;28;20047;-64
2022/03/14 04:45:00;;;;;;;;;;;;;;;5.58;100.00;100820.53;5013508;28;19976;-64
2022/03/14 04:47:44;;;;;;;;;;;;;;;5.73;100.00;100810.25;5011729;28;20017;-71
2022/03/14 04:50:29;;;;;;;;;;;;;;;5.67;100.00;100814.53;5027395;28;19944;-64
2022/03/14 04:53:14;;;;;;;;;;;;;;;5.70;100.00;100823.34;5026483;28;20273;-64
2022/03/14 04:55:58;;;;;;;;;;;;;;;5.83;100.00;100819.22;5029693;28;19928;-64
2022/03/14 04:58:43;;;;;;;;;;;;;;;5.87;100.00;100831.56;5031404;28;20370;-65
2022/03/14 05:01:27;;;;;;;;;;;;;;;5.84;100.00;100818.34;5013426;28;19944;-65
2022/03/14 05:04:12;;;;;;;;;;;;;;;5.93;100.00;100822.00;5028322;28;19944;-65
2022/03/14 05:06:56;;;;;;;;;;;;;;;6.03;100.00;100830.94;5012674;28;20031;-71
2022/03/14 05:09:42;;;;;;;;;;;;;;;6.09;100.00;100831.03;5028544;28;19979;-66
2022/03/14 05:12:30;;;;;;;;;;;;;;;6.06;100.00;100834.53;4997916;28;19947;-66
2022/03/14 05:15:17;;;;;;;;;;;;;;;6.12;100.00;100831.97;4985502;28;19928;-63
2022/03/14 05:18:02;;;;;;;;;;;;;;;6.08;100.00;100843.31;5013397;28;19928;-64
2022/03/14 05:20:47;;;;;;;;;;;;;;;6.06;100.00;100839.78;5013364;28;19990;-72
2022/03/14 05:23:31;;;;;;;;;;;;;;;6.24;100.00;100845.31;5016879;28;19991;-66
2022/03/14 05:26:16;;;;;;;;;;;;;;;6.36;100.00;100852.47;5029319;28;20404;-64
2022/03/14 05:29:00;;;;;;;;;;;;;;;6.40;100.00;100854.28;5034167;28;20320;-65
2022/03/14 05:31:45;;;;;;;;;;;;;;;6.30;100.00;100857.69;5014921;28;19928;-67
2022/03/14 05:34:29;;;;;;;;;;;;;;;6.28;100.00;100856.75;5033525;28;19998;-66
2022/03/14 05:37:14;;;;;;;;;;;;;;;6.22;100.00;100859.31;5018665;28;19931;-65
2022/03/14 05:39:58;;;;;;;;;;;;;;;6.20;100.00;100854.03;5034342;28;19967;-66
2022/03/14 05:42:45;;;;;;;;;;;;;;;6.20;100.00;100861.03;5031731;28;19927;-67
2022/03/14 05:45:29;;;;;;;;;;;;;;;6.27;100.00;100863.78;4986531;28;20473;-70
2022/03/14 05:48:14;;;;;;;;;;;;;;;6.31;100.00;100867.34;5031558;28;19983;-65
2022/03/14 05:50:59;;;;;;;;;;;;;;;6.37;100.00;100864.81;5014676;28;19927;-67
2022/03/14 05:53:44;;;;;;;;;;;;;;;6.37;100.00;100865.69;5015863;28;19974;-65
2022/03/14 05:56:29;;;;;;;;;;;;;;;6.39;100.00;100863.06;5015840;28;20440;-66
2022/03/14 05:59:15;;;;;;;;;;;;;;;6.47;100.00;100864.97;5016895;28;20400;-65
2022/03/14 06:01:59;;;;;;;;;;;;;;;6.68;100.00;100870.50;5016841;28;19943;-65
2022/03/14 06:04:44;;;;;;;;;;;;;;;6.72;100.00;100874.09;5030533;28;19928;-71
2022/03/14 06:07:28;;;;;;;;;;;;;;;6.68;100.00;100873.13;5031187;28;19971;-66
2022/03/14 06:10:15;;;;;;;;;;;;;;;6.73;100.00;100873.22;5029282;28;20288;-66
2022/03/14 06:13:00;;;;;;;;;;;;;;;6.62;100.00;100873.06;5018162;28;19928;-65
2022/03/14 06:15:47;;;;;;;;;;;;;;;6.51;100.00;100885.22;5031578;28;20023;-65
2022/03/14 06:18:32;;;;;;;;;;;;;;;6.64;100.00;100891.53;5015531;28;19975;-72
2022/03/14 06:21:16;;;;;;;;;;;;;;;6.78;98.42;100896.13;5017813;28;19979;-67
2022/03/14 06:24:01;;;;;;;;;;;;;;;6.96;93.61;100896.34;4986481;28;19928;-67
2022/03/14 06:26:46;;;;;;;;;;;;;;;6.90;95.58;100898.03;5003907;28;20285;-67
2022/03/14 06:29:31;;;;;;;;;;;;;;;7.07;89.95;100894.72;5014244;28;19928;-65
2022/03/14 06:32:15;;;;;;;;;;;;;;;7.22;83.52;100899.28;5031281;28;19951;-68
2022/03/14 06:35:00;;;;;;;;;;;;;;;7.19;85.08;100894.88;5029788;28;20204;-66
2022/03/14 06:37:45;;;;;;;;;;;;;;;7.13;83.42;100897.47;5015204;28;20289;-65
2022/03/14 06:40:29;;;;;;;;;;;;;;;7.22;76.12;100894.00;5032852;28;19928;-66
2022/03/14 06:43:17;;;;;;;;;;;;;;;7.42;74.51;100897.75;5019885;28;20014;-70
2022/03/14 06:46:04;;;;;;;;;;;;;;;7.56;74.63;100901.44;5003359;28;20332;-68
2022/03/14 06:48:49;;;;;;;;;;;;;;;7.66;68.89;100896.25;4998898;28;20379;-65
2022/03/14 06:51:33;;;;;;;;;;;;;;;7.65;67.20;100897.13;5026003;28;20400;-66
2022/03/14 06:54:18;;;;;;;;;;;;;;;7.73;68.40;100903.38;5006324;28;20325;-66
2022/03/14 06:57:03;;;;;;;;;;;;;;;7.87;65.20;100908.78;5005181;28;20427;-70
2022/03/14 06:59:47;;;;;;;;;;;;;;;8.04;64.49;100907.16;5008938;28;19932;-67
2022/03/14 07:02:31;;;;;;;;;;;;;;;8.08;62.05;100917.75;5000340;28;20019;-67
2022/03/14 07:05:19;;;;;;;;;;;;;;;8.17;66.42;100917.84;5015529;28;20419;-66
2022/03/14 07:08:04;;;;;;;;;;;;;;;8.34;63.53;100915.34;5015021;28;19994;-67
2022/03/14 07:10:49;;;;;;;;;;;;;;;8.59;59.39;100918.16;5011873;28;19932;-66
2022/03/14 07:13:34;;;;;;;;;;;;;;;8.50;62.16;100910.19;4990676;28;19928;-66
2022/03/14 07:16:20;;;;;;;;;;;;;;;8.35;60.88;100890.72;5020199;28;20082;-71
2022/03/14 07:19:04;;;;;;;;;;;;;;;8.54;59.92;100914.59;5020700;28;19967;-65
2022/03/14 07:21:48;;;;;;;;;;;;;;;8.31;61.08;100916.22;5016283;28;19928;-66
2022/03/14 07:24:33;;;;;;;;;;;;;;;8.19;59.42;100912.56;5021728;28;19928;-67
2022/03/14 07:27:17;;;;;;;;;;;;;;;8.11;60.23;100912.50;5014418;28;19932;-66
2022/03/14 07:30:02;;;;;;;;;;;;;;;8.04;57.78;100913.31;5017355;28;19975;-65
2022/03/14 07:32:47;;;;;;;;;;;;;;;8.10;55.49;100915.13;4960145;28;20072;-66
2022/03/14 07:35:32;;;;;;;;;;;;;;;8.31;55.80;100916.22;4990231;28;19928;-71
2022/03/14 07:38:16;;;;;;;;;;;;;;;8.21;57.82;100903.81;4992301;28;20003;-66
2022/03/14 07:41:00;;;;;;;;;;;;;;;8.58;58.33;100911.09;4987754;28;20376;-68
2022/03/14 07:43:46;;;;;;;;;;;;;;;8.76;58.69;100900.66;4975398;28;20397;-65
2022/03/14 07:46:32;;;;;;;;;;;;;;;9.26;53.87;100908.81;4988611;28;19929;-66
2022/03/14 07:49:16;;;;;;;;;;;;;;;9.63;51.54;100901.81;4974795;28;19971;-68
2022/03/14 07:52:01;;;;;;;;;;;;;;;10.32;51.94;100904.56;4997002;28;20411;-66
2022/03/14 07:54:46;;;;;;;;;;;;;;;10.90;46.67;100899.13;5029857;28;19971;-70
2022/03/14 07:57:31;;;;;;;;;;;;;;;10.85;45.22;100902.66;5016030;28;20411;-66
2022/03/14 08:00:18;;;;;;;;;;;;;;;11.14;47.01;100896.38;5010925;28;19927;-68
2022/03/14 08:03:05;;;;;;;;;;;;;;;11.04;43.40;100901.72;4990448;28;19927;-66
2022/03/14 08:05:56;;;;;;;;;;;;;;;10.96;43.28;100892.91;5018487;28;20349;-68
2022/03/14 08:08:43;;;;;;;;;;;;;;;10.92;45.73;100893.81;4999595;28;20289;-70
2022/03/14 08:11:29;;;;;;;;;;;;;;;10.47;46.60;100900.09;5019485;28;20023;-66
2022/03/14 08:14:14;;;;;;;;;;;;;;;10.03;47.47;100879.78;4982982;28;19927;-67
2022/03/14 08:16:59;;;;;;;;;;;;;;;11.42;45.45;100895.34;4981880;28;19928;-68
2022/03/14 08:19:43;;;;;;;;;;;;;;;11.92;43.51;100892.38;5017240;28;19944;-65
2022/03/14 08:22:27;;;;;;;;;;;;;;;12.90;41.05;100906.50;5001567;28;20293;-66
2022/03/14 08:25:12;;;;;;;;;;;;;;;13.14;40.43;100892.06;4999870;28;19975;-69
2022/03/14 08:27:56;;;;;;;;;;;;;;;14.62;39.71;100899.53;4989258;28;20417;-73
2022/03/14 08:30:42;;;;;;;;;;;;;;;15.82;33.72;100893.47;5001458;28;19944;-68
2022/03/14 08:33:27;;;;;;;;;;;;;;;17.37;33.20;100906.28;5000720;28;19928;-65
2022/03/14 08:36:12;;;;;;;;;;;;;;;18.30;32.39;100897.97;4974783;28;20421;-67
2022/03/14 08:38:56;;;;;;;;;;;;;;;18.66;33.40;100903.94;5017890;28;19944;-67
2022/03/14 08:41:41;;;;;;;;;;;;;;;19.40;27.77;100900.31;4999064;28;19928;-66
2022/03/14 08:44:26;;;;;;;;;;;;;;;20.78;27.50;100893.72;5014964;28;20024;-65
2022/03/14 08:47:10;;;;;;;;;;;;;;;21.76;23.93;100895.50;5002195;28;20000;-67
2022/03/14 08:49:54;;;;;;;;;;;;;;;22.26;23.01;100888.50;4990890;28;20496;-65
2022/03/14 08:52:39;;;;;;;;;;;;;;;20.88;21.83;100881.56;4999431;28;19928;-66
2022/03/14 08:55:25;;;;;;;;;;;;;;;20.96;24.95;100887.53;5000452;28;20300;-66
2022/03/14 08:58:10;;;;;;;;;;;;;;;19.72;25.72;100869.44;5024393;28;19931;-68
2022/03/14 09:00:54;;;;;;;;;;;;;;;18.50;27.53;100881.19;5019659;28;19979;-68
2022/03/14 09:03:38;;;;;;;;;;;;;;;19.95;25.35;100872.09;5021369;28;19971;-70
2022/03/14 09:06:24;;;;;;;;;;;;;;;21.26;22.61;100872.66;5007703;28;19927;-72
2022/03/14 09:09:10;;;;;;;;;;;;;;;21.36;24.17;100868.59;5024537;28;19932;-66
2022/03/14 09:11:55;;;;;;;;;;;;;;;21.59;23.68;100876.47;4997970;28;19928;-69
2022/03/14 09:14:39;;;;;;;;;;;;;;;22.28;21.53;100878.50;4969481;28;19928;-67
2022/03/14 09:17:26;;;;;;;;;;;;;;;23.81;21.92;100874.75;5018380;28;19947;-69
2022/03/14 09:20:12;;;;;;;;;;;;;;;23.86;21.63;100870.84;5013426;28;19928;-69
2022/03/14 09:22:57;;;;;;;;;;;;;;;25.10;17.66;100881.44;5006371;28;19948;-68
2022/03/14 09:25:42;;;;;;;;;;;;;;;24.54;19.37;100847.84;5008612;28;20317;-70
2022/03/14 09:28:26;;;;;;;;;;;;;;;25.58;17.32;100880.22;5025804;28;20392;-69
2022/03/14 09:31:12;;;;;;;;;;;;;;;23.73;18.30;100877.88;4990283;28;20067;-69
2022/03/14 09:33:57;;;;;;;;;;;;;;;22.26;22.06;100883.09;5008116;28;19928;-69
2022/03/14 09:36:42;;;;;;;;;;;;;;;20.83;22.01;100868.28;4992257;28;20436;-68
2022/03/14 09:39:26;;;;;;;;;;;;;;;21.11;22.93;100876.06;4992457;28;20475;-69
2022/03/14 09:42:12;;;;;;;;;;;;;;;22.27;22.22;100856.94;4995637;28;20348;-66
2022/03/14 09:44:58;;;;;;;;;;;;;;;23.37;18.97;100879.06;4977243;28;19936;-76
2022/03/14 09:47:45;;;;;;;;;;;;;;;23.14;17.96;100876.69;4993638;28;19968;-66
2022/03/14 09:50:31;;;;;;;;;;;;;;;23.88;19.45;100841.78;5017955;28;19931;-66
2022/03/14 09:53:18;;;;;;;;;;;;;;;25.02;18.53;100878.34;5027310;28;19928;-67
2022/03/14 09:56:03;;;;;;;;;;;;;;;25.00;17.67;100863.13;4995451;28;19928;-67
2022/03/14 09:58:53;;;;;;;;;;;;;;;22.86;19.26;100866.44;5010567;28;19963;-70
2022/03/14 10:01:37;;;;;;;;;;;;;;;23.60;18.91;100863.28;5009061;28;20373;-66
2022/03/14 10:04:22;;;;;;;;;;;;;;;23.49;20.13;100862.16;5001198;28;19928;-67
2022/03/14 10:07:07;;;;;;;;;;;;;;;24.35;18.10;100863.44;5014627;28;19975;-67
2022/03/14 10:09:54;;;;;;;;;;;;;;;24.40;17.97;100867.66;5014224;28;19932;-68
2022/03/14 10:12:52;;;;;;;;;;;;;;;25.42;17.04;100865.88;4996715;28;19971;-73
2022/03/14 10:15:40;;;;;;;;;;;;;;;23.96;17.94;100853.09;4983086;28;20305;-66
2022/03/14 10:18:26;;;;;;;;;;;;;;;23.69;19.09;100851.94;5010606;28;20482;-67
2022/03/14 10:21:12;;;;;;;;;;;;;;;25.05;17.88;100850.13;5015679;28;19932;-67
2022/03/14 10:24:08;;;;;;;;;;;;;;;26.37;17.10;100857.75;4998294;28;19932;-69
2022/03/14 10:26:54;;;;;;;;;;;;;;;25.55;18.94;100848.69;5028845;28;19978;-67
2022/03/14 10:29:41;;;;;;;;;;;;;;;24.34;18.62;100838.19;5029976;28;19967;-67
2022/03/14 10:32:30;;;;;;;;;;;;;;;24.27;18.42;100846.75;4981511;28;20042;-66
2022/03/14 10:35:21;;;;;;;;;;;;;;;24.23;18.10;100843.38;5018104;28;19928;-71
2022/03/14 10:38:08;;;;;;;;;;;;;;;24.24;19.22;100838.81;5012916;28;20055;-69
2022/03/14 10:40:53;;;;;;;;;;;;;;;24.47;19.48;100846.44;5022869;28;20023;-67
2022/03/14 10:43:42;;;;;;;;;;;;;;;24.97;17.58;100852.44;4994644;28;20481;-67
2022/03/14 10:46:28;;;;;;;;;;;;;;;25.05;17.45;100839.25;4994486;28;20039;-69
2022/03/14 10:49:14;;;;;;;;;;;;;;;25.59;16.60;100850.25;5008176;28;19931;-71
2022/03/14 10:52:05;;;;;;;;;;;;;;;24.61;16.47;100851.97;4996567;28;19968;-70
2022/03/14 10:54:51;;;;;;;;;;;;;;;24.28;17.13;100846.69;4995360;28;19928;-68
2022/03/14 10:57:35;;;;;;;;;;;;;;;25.26;17.55;100841.50;5010078;28;20402;-72
2022/03/14 11:00:22;;;;;;;;;;;;;;;25.15;17.94;100843.13;4996663;28;19975;-68
2022/03/14 11:03:07;;;;;;;;;;;;;;;23.07;18.32;100835.56;5010581;28;19928;-68
2022/03/14 11:05:52;;;;;;;;;;;;;;;23.76;17.67;100844.31;4993725;28;19928;-68
2022/03/14 11:08:39;;;;;;;;;;;;;;;25.72;16.71;100844.91;4994127;28;20251;-66
2022/03/14 11:11:24;;;;;;;;;;;;;;;25.80;17.24;100835.25;5010848;28;19928;-68
2022/03/14 11:14:12;;;;;;;;;;;;;;;24.81;18.53;100838.06;4974680;28;19932;-66
2022/03/14 11:17:09;;;;;;;;;;;;;;;25.27;17.70;100845.97;4991882;28;20409;-69
2022/03/14 11:19:55;;;;;;;;;;;;;;;25.14;16.89;100847.72;4993447;28;20055;-67
2022/03/14 11:22:40;;;;;;;;;;;;;;;24.30;17.98;100842.06;5012509;28;19929;-67
2022/03/14 11:25:26;;;;;;;;;;;;;;;22.69;18.91;100842.13;4994836;28;19927;-71
2022/03/14 11:28:18;;;;;;;;;;;;;;;21.58;19.15;100839.63;4968143;28;20477;-68
2022/03/14 11:31:03;;;;;;;;;;;;;;;20.86;19.84;100834.94;4982582;28;19932;-66
2022/03/14 11:33:48;;;;;;;;;;;;;;;21.44;20.72;100836.72;5029245;28;19932;-68
2022/03/14 11:36:34;;;;;;;;;;;;;;;21.60;21.07;100833.22;5014831;28;19928;-64
2022/03/14 11:39:21;;;;;;;;;;;;;;;21.37;20.44;100829.88;5030148;28;19963;-72
2022/03/14 11:42:06;;;;;;;;;;;;;;;21.57;20.41;100837.88;5011716;28;20409;-63
2022/03/14 11:44:51;;;;;;;;;;;;;;;22.63;19.19;100837.06;4988477;28;19968;-66
2022/03/14 11:47:37;;;;;;;;;;;;;;;21.79;20.77;100841.31;4977365;28;20421;-67
2022/03/14 11:50:22;;;;;;;;;;;;;;;20.72;20.76;100835.53;4977999;28;19928;-64
2022/03/14 11:53:06;;;;;;;;;;;;;;;20.30;21.06;100833.84;4990006;28;19928;-66
2022/03/14 11:55:54;;;;;;;;;;;;;;;19.22;22.45;100831.03;5017317;28;19948;-67
2022/03/14 11:58:48;;;;;;;;;;;;;;;19.42;22.20;100833.00;4973831;28;19929;-69
2022/03/14 12:01:48;;;;;;;;;;;;;;;18.96;23.21;100825.78;4975199;28;19944;-67
2022/03/14 12:04:34;;;;;;;;;;;;;;;18.82;23.28;100827.22;4975317;28;19972;-69
2022/03/14 12:07:28;;;;;;;;;;;;;;;17.94;24.29;100826.69;4979638;28;20342;-66
2022/03/14 12:10:28;;;;;;;;;;;;;;;17.61;24.20;100831.34;4996467;28;19929;-67
2022/03/14 12:13:32;;;;;;;;;;;;;;;17.89;23.89;100831.34;4993652;28;19932;-67
2022/03/14 12:16:36;;;;;;;;;;;;;;;18.03;24.18;100819.22;5011032;28;19927;-67
2022/03/14 12:19:31;;;;;;;;;;;;;;;16.41;25.94;100826.84;4974104;28;20120;-69
2022/03/14 12:22:35;;;;;;;;;;;;;;;15.86;26.03;100829.16;5016887;28;19928;-65
2022/03/14 12:25:39;;;;;;;;;;;;;;;15.73;26.64;100826.81;5003768;28;19928;-74
2022/03/14 12:28:31;;;;;;;;;;;;;;;15.78;27.02;100827.59;5012744;28;19947;-66
2022/03/14 12:31:18;;;;;;;;;;;;;;;15.46;26.90;100823.00;5015186;28;19969;-65
2022/03/14 12:34:12;;;;;;;;;;;;;;;15.33;27.33;100829.50;5026794;28;19932;-65
2022/03/14 12:37:05;;;;;;;;;;;;;;;15.22;27.64;100796.78;5027180;28;19975;-73
2022/03/14 12:39:50;;;;;;;;;;;;;;;15.58;27.65;100827.19;5015970;28;20396;-66
2022/03/14 12:42:45;;;;;;;;;;;;;;;15.58;27.32;100819.19;5027112;28;19931;-64
2022/03/14 12:45:47;;;;;;;;;;;;;;;15.73;26.96;100816.13;5013799;28;19971;-67
2022/03/14 12:48:33;;;;;;;;;;;;;;;15.91;27.21;100824.56;5013918;28;19967;-65
2022/03/14 12:51:29;;;;;;;;;;;;;;;15.57;27.29;100833.44;5012969;28;20415;-65
2022/03/14 12:54:30;;;;;;;;;;;;;;;15.56;27.49;100819.22;4998018;28;19932;-68
2022/03/14 12:57:17;;;;;;;;;;;;;;;15.70;27.18;100825.09;5028502;28;19928;-65
2022/03/14 13:00:04;;;;;;;;;;;;;;;15.70;27.36;100829.59;5015929;28;19928;-65
2022/03/14 13:02:48;;;;;;;;;;;;;;;15.28;27.44;100826.06;5013722;28;19928;-69
2022/03/14 13:05:33;;;;;;;;;;;;;;;14.88;28.04;100827.84;5030733;28;20074;-65
2022/03/14 13:08:19;;;;;;;;;;;;;;;14.63;28.52;100833.69;5013121;28;19970;-65
2022/03/14 13:11:06;;;;;;;;;;;;;;;14.59;28.51;100830.19;5013547;28;20355;-64
2022/03/14 13:13:51;;;;;;;;;;;;;;;14.31;29.62;100828.94;5028146;28;20407;-66
2022/03/14 13:16:37;;;;;;;;;;;;;;;14.06;29.65;100824.03;5028599;28;20353;-67
2022/03/14 13:19:26;;;;;;;;;;;;;;;13.21;31.27;100817.38;5002171;28;19979;-64
2022/03/14 13:22:12;;;;;;;;;;;;;;;13.18;31.88;100809.44;5026269;28;19975;-65
2022/03/14 13:24:57;;;;;;;;;;;;;;;13.32;32.61;100820.78;4985747;28;19928;-64
2022/03/14 13:27:53;;;;;;;;;;;;;;;13.60;31.57;100814.13;5014297;28;19951;-63
2022/03/14 13:30:45;;;;;;;;;;;;;;;13.65;31.51;100824.72;5011451;28;19928;-66
2022/03/14 13:33:31;;;;;;;;;;;;;;;13.11;32.02;100818.44;5013465;28;19986;-65
2022/03/14 13:36:16;;;;;;;;;;;;;;;13.17;32.20;100822.75;4985686;28;19943;-65
2022/03/14 13:39:01;;;;;;;;;;;;;;;13.02;32.78;100825.66;4999471;28;19971;-65
2022/03/14 13:41:46;;;;;;;;;;;;;;;13.36;32.64;100829.59;5013544;28;20125;-63
2022/03/14 13:44:31;;;;;;;;;;;;;;;13.49;32.28;100833.88;5014945;28;20375;-64
2022/03/14 13:47:24;;;;;;;;;;;;;;;13.25;32.37;100837.75;5018281;28;19971;-65
2022/03/14 13:50:09;;;;;;;;;;;;;;;12.98;32.53;100834.59;5019053;28;20020;-65
2022/03/14 13:52:54;;;;;;;;;;;;;;;12.89;33.25;100834.63;5003522;28;20316;-65
2022/03/14 13:55:38;;;;;;;;;;;;;;;12.76;33.38;100835.69;5016134;28;19970;-65
2022/03/14 13:58:26;;;;;;;;;;;;;;;12.15;34.72;100843.44;5015118;28;20392;-72
2022/03/14 14:01:11;;;;;;;;;;;;;;;11.92;35.81;100839.22;5031581;28;20345;-65
2022/03/14 14:03:55;;;;;;;;;;;;;;;11.78;36.54;100836.69;5015891;28;19970;-66
2022/03/14 14:06:44;;;;;;;;;;;;;;;11.83;36.12;100829.53;5017683;28;19951;-63
2022/03/14 14:09:30;;;;;;;;;;;;;;;11.48;36.97;100836.00;5016451;28;20362;-65
2022/03/14 14:12:24;;;;;;;;;;;;;;;11.21;37.48;100837.06;5030760;28;19967;-64
2022/03/14 14:15:10;;;;;;;;;;;;;;;10.52;39.25;100842.63;5032812;28;20039;-65